Time;durP1;ratioP1;P1;durP2;ratioP2;P2;SDS_P1;SDS_P2;PMS_P1;PMS_P2;Temp;Humidity;BMP_temperature;BMP_pressure;BME280_temperature;BME280_humidity;BME280_pressure;Samples;Min_cycle;Max_cycle;Signal;HPM_P1;HPM_P2
2023/06/14 00:02:18;;;;;;;7.45;3.50;;;15.30;99.90;;;;;;4999585;28;20042;-89
2023/06/14 00:04:45;;;;;;;5.68;4.45;;;15.20;99.90;;;;;;4990843;28;20034;-90
2023/06/14 00:07:13;;;;;;;6.55;3.42;;;15.20;99.90;;;;;;4997316;28;20031;-89
2023/06/14 00:09:39;;;;;;;10.85;4.53;;;15.20;99.90;;;;;;4987200;28;20495;-90
2023/06/14 00:12:06;;;;;;;6.35;4.20;;;15.10;99.90;;;;;;4990823;28;20041;-91
2023/06/14 00:14:32;;;;;;;6.05;3.75;;;15.10;99.90;;;;;;5001725;28;20030;-86
2023/06/14 00:16:58;;;;;;;6.55;4.18;;;15.10;99.90;;;;;;5007488;28;20069;-88
2023/06/14 00:19:26;;;;;;;6.00;4.03;;;15.10;99.90;;;;;;4993937;28;20056;-90
2023/06/14 00:21:52;;;;;;;6.43;4.13;;;15.00;99.90;;;;;;5001428;28;20041;-90
2023/06/14 00:24:19;;;;;;;9.30;4.30;;;15.00;99.90;;;;;;4994667;28;20034;-91
2023/06/14 00:26:47;;;;;;;7.30;3.70;;;15.00;99.90;;;;;;5010997;28;20041;-91
2023/06/14 00:29:13;;;;;;;7.95;3.22;;;14.90;99.90;;;;;;4995036;28;20041;-91
2023/06/14 00:31:39;;;;;;;6.60;4.28;;;14.80;99.90;;;;;;4993401;28;20045;-91
2023/06/14 00:34:05;;;;;;;5.38;3.58;;;14.60;99.90;;;;;;5009680;28;20047;-90
2023/06/14 00:36:32;;;;;;;5.13;3.72;;;14.60;99.90;;;;;;4997075;28;20137;-85
2023/06/14 00:38:59;;;;;;;9.15;3.65;;;14.50;99.90;;;;;;4992669;28;20051;-90
2023/06/14 00:41:25;;;;;;;5.47;3.63;;;14.40;99.90;;;;;;4980775;28;20380;-92
2023/06/14 00:43:52;;;;;;;8.70;3.45;;;14.50;99.90;;;;;;4996877;28;20050;-90
2023/06/14 00:46:19;;;;;;;5.90;3.97;;;14.50;99.90;;;;;;5010379;28;20046;-90
2023/06/14 00:48:45;;;;;;;5.22;4.05;;;14.50;99.90;;;;;;4977284;28;20522;-90
2023/06/14 00:51:11;;;;;;;5.55;3.70;;;14.50;99.90;;;;;;4989854;28;20034;-92
2023/06/14 00:53:39;;;;;;;5.70;4.03;;;14.40;99.90;;;;;;4978458;28;20049;-88
2023/06/14 00:56:06;;;;;;;7.55;4.25;;;14.30;99.90;;;;;;4995203;28;20361;-91
2023/06/14 00:58:32;;;;;;;9.98;5.00;;;14.20;99.90;;;;;;4994707;28;20208;-90
2023/06/14 01:00:58;;;;;;;4.78;3.92;;;14.10;99.90;;;;;;4982538;28;20055;-86
2023/06/14 01:03:25;;;;;;;6.57;4.15;;;14.00;99.90;;;;;;4990729;28;20423;-88
2023/06/14 01:06:02;;;;;;;6.85;4.30;;;13.90;99.90;;;;;;4988394;28;20038;-89
2023/06/14 01:08:44;;;;;;;6.25;3.70;;;13.90;99.90;;;;;;5006545;28;20050;-88
2023/06/14 01:11:21;;;;;;;6.65;4.20;;;13.90;99.90;;;;;;5007203;28;20034;-89
2023/06/14 01:13:48;;;;;;;9.18;3.85;;;13.90;99.90;;;;;;4986715;28;20042;-89
2023/06/14 01:16:15;;;;;;;5.93;3.70;;;13.90;99.90;;;;;;4997506;28;20050;-89
2023/06/14 01:18:47;;;;;;;6.78;4.38;;;13.90;99.90;;;;;;5006265;28;20048;-89
2023/06/14 01:21:28;;;;;;;6.70;4.35;;;13.90;99.90;;;;;;4992640;28;20026;-90
2023/06/14 01:23:54;;;;;;;6.15;3.70;;;13.90;99.90;;;;;;4975392;28;20049;-89
2023/06/14 01:26:21;;;;;;;5.82;3.90;;;13.80;99.90;;;;;;4992978;28;20042;-90
2023/06/14 01:28:52;;;;;;;6.03;3.80;;;13.80;99.90;;;;;;4986150;28;20042;-90
2023/06/14 01:31:24;;;;;;;6.90;4.60;;;13.70;99.90;;;;;;5005679;28;20039;-90
2023/06/14 01:33:51;;;;;;;7.70;4.63;;;13.70;99.90;;;;;;5006740;28;20049;-89
2023/06/14 01:36:19;;;;;;;6.13;3.95;;;13.60;99.90;;;;;;4981860;28;20492;-89
2023/06/14 01:38:48;;;;;;;6.15;4.22;;;13.50;99.90;;;;;;4990083;28;20038;-88
2023/06/14 01:41:15;;;;;;;6.00;4.18;;;13.50;99.90;;;;;;4990726;28;20045;-90
2023/06/14 01:43:42;;;;;;;9.52;5.60;;;13.30;99.90;;;;;;4989329;28;20532;-90
2023/06/14 01:46:09;;;;;;;6.13;4.43;;;13.30;99.90;;;;;;4995742;28;20043;-88
2023/06/14 01:48:36;;;;;;;12.45;4.30;;;13.20;99.90;;;;;;4990552;28;20027;-86
2023/06/14 01:51:03;;;;;;;9.68;4.47;;;13.20;99.90;;;;;;5006564;28;20057;-89
2023/06/14 01:53:29;;;;;;;5.63;3.60;;;13.10;99.90;;;;;;4988305;28;20046;-88
2023/06/14 01:55:56;;;;;;;6.80;4.38;;;13.10;99.90;;;;;;4992070;28;20038;-89
2023/06/14 01:58:23;;;;;;;5.72;4.13;;;13.10;99.90;;;;;;4976728;28;20049;-89
2023/06/14 02:00:51;;;;;;;6.00;3.95;;;13.10;99.90;;;;;;4992084;28;20483;-91
2023/06/14 02:03:19;;;;;;;5.80;3.90;;;13.10;99.90;;;;;;4998747;28;20045;-87
2023/06/14 02:05:45;;;;;;;5.07;3.85;;;13.10;99.90;;;;;;4969718;28;20049;-89
2023/06/14 02:08:11;;;;;;;6.60;4.25;;;12.90;99.90;;;;;;4971098;28;20050;-89
2023/06/14 02:10:38;;;;;;;5.70;4.32;;;12.90;99.90;;;;;;4992492;28;20395;-86
2023/06/14 02:13:04;;;;;;;7.05;4.50;;;12.90;99.90;;;;;;4993335;28;20480;-90
2023/06/14 02:15:36;;;;;;;6.97;4.30;;;12.90;99.90;;;;;;5006144;28;20038;-90
2023/06/14 02:18:03;;;;;;;7.13;4.40;;;12.90;99.90;;;;;;4990264;28;20049;-91
2023/06/14 02:20:30;;;;;;;5.40;3.88;;;12.90;99.90;;;;;;4989742;28;20042;-91
2023/06/14 02:22:57;;;;;;;7.13;4.20;;;12.80;99.90;;;;;;4994213;28;20041;-89
2023/06/14 02:25:23;;;;;;;8.98;4.60;;;12.70;99.90;;;;;;4986939;28;20034;-89
2023/06/14 02:27:49;;;;;;;5.95;3.88;;;12.70;99.90;;;;;;4983044;28;20499;-90
2023/06/14 02:30:16;;;;;;;5.95;4.05;;;12.60;99.90;;;;;;4997473;28;20057;-90
2023/06/14 02:32:42;;;;;;;6.57;4.32;;;12.60;99.90;;;;;;4991488;28;20046;-89
2023/06/14 02:35:09;;;;;;;5.72;4.20;;;12.60;1.00;;;;;;5007990;28;20041;-88
2023/06/14 02:37:36;;;;;;;6.40;5.00;;;12.70;99.90;;;;;;5012285;28;20069;-90
2023/06/14 02:40:02;;;;;;;7.70;4.03;;;12.60;99.90;;;;;;4997624;28;20042;-91
2023/06/14 02:42:31;;;;;;;5.57;4.25;;;12.60;1.00;;;;;;4981884;28;20054;-90
2023/06/14 02:44:57;;;;;;;6.80;4.93;;;12.70;1.00;;;;;;4995056;28;20515;-90
2023/06/14 02:47:24;;;;;;;5.13;4.63;;;12.80;1.00;;;;;;4999366;28;20038;-90
2023/06/14 02:49:50;;;;;;;7.93;4.45;;;12.70;1.00;;;;;;4980707;28;20061;-90
2023/06/14 02:52:16;;;;;;;8.48;4.88;;;12.60;1.00;;;;;;5008766;28;20057;-90
2023/06/14 02:54:42;;;;;;;6.38;4.20;;;12.50;1.00;;;;;;5014079;28;20047;-88
2023/06/14 02:57:10;;;;;;;9.63;4.82;;;12.50;1.00;;;;;;4995806;28;20118;-91
2023/06/14 02:59:37;;;;;;;6.80;4.45;;;12.50;1.00;;;;;;5010582;28;20053;-86
2023/06/14 03:02:05;;;;;;;6.05;4.22;;;12.50;1.00;;;;;;4987132;28;20403;-90
2023/06/14 03:04:36;;;;;;;10.98;5.85;;;12.50;1.00;;;;;;5008704;28;20066;-91
2023/06/14 03:07:08;;;;;;;9.02;5.28;;;12.50;1.00;;;;;;5011978;28;20046;-88
2023/06/14 03:09:39;;;;;;;5.85;4.72;;;12.40;1.00;;;;;;5009725;28;20045;-89
2023/06/14 03:12:07;;;;;;;10.95;5.38;;;12.40;1.00;;;;;;4979957;28;20039;-88
2023/06/14 03:14:34;;;;;;;7.82;4.88;;;12.30;1.00;;;;;;5010567;28;20395;-89
2023/06/14 03:17:01;;;;;;;8.43;5.18;;;12.30;1.00;;;;;;5012566;28;20514;-88
2023/06/14 03:19:29;;;;;;;9.30;5.22;;;12.30;1.00;;;;;;5007748;28;20066;-89
2023/06/14 03:21:57;;;;;;;6.50;4.65;;;12.30;1.00;;;;;;5010597;28;20039;-88
2023/06/14 03:24:28;;;;;;;8.63;5.22;;;12.40;1.00;;;;;;4994383;28;20050;-88
2023/06/14 03:26:56;;;;;;;8.30;5.60;;;12.30;1.00;;;;;;4998819;28;20049;-87
2023/06/14 03:29:23;;;;;;;7.55;4.88;;;12.30;1.00;;;;;;4992852;28;20391;-87
2023/06/14 03:31:59;;;;;;;7.28;4.82;;;12.30;1.00;;;;;;4991262;28;20042;-89
2023/06/14 03:34:28;;;;;;;11.85;5.72;;;12.40;1.00;;;;;;5004999;28;20053;-89
2023/06/14 03:36:54;;;;;;;5.55;4.38;;;12.30;1.00;;;;;;4990498;28;20046;-88
2023/06/14 03:39:21;;;;;;;8.90;6.15;;;12.40;1.00;;;;;;4997224;28;20047;-90
2023/06/14 03:41:47;;;;;;;6.95;4.60;;;12.40;1.00;;;;;;5015232;28;20369;-89
2023/06/14 03:44:18;;;;;;;6.50;5.07;;;12.40;1.00;;;;;;5006693;28;20058;-87
2023/06/14 03:46:46;;;;;;;6.82;5.25;;;12.50;1.00;;;;;;5002845;28;20046;-88
2023/06/14 03:49:13;;;;;;;7.22;4.45;;;12.50;1.00;;;;;;5012575;28;20024;-88
2023/06/14 03:51:39;;;;;;;7.85;5.30;;;12.50;1.00;;;;;;4999203;28;20048;-88
2023/06/14 03:54:06;;;;;;;6.88;5.22;;;12.60;1.00;;;;;;5024790;28;20051;-86
2023/06/14 03:56:33;;;;;;;7.97;4.80;;;12.60;1.00;;;;;;5003655;28;20042;-86
2023/06/14 03:59:00;;;;;;;6.65;4.40;;;12.60;1.00;;;;;;4992761;28;20038;-88
2023/06/14 04:01:29;;;;;;;7.00;4.80;;;12.70;1.00;;;;;;4999922;28;20045;-89
2023/06/14 04:03:58;;;;;;;6.40;5.15;;;12.80;1.00;;;;;;5012321;28;20033;-88
2023/06/14 04:06:31;;;;;;;8.65;4.63;;;12.90;1.00;;;;;;4999712;28;20053;-84
2023/06/14 04:09:03;;;;;;;6.45;4.25;;;13.00;1.00;;;;;;4993023;28;20065;-86
2023/06/14 04:11:31;;;;;;;7.13;4.82;;;13.10;99.90;;;;;;5010850;28;20047;-87
2023/06/14 04:13:58;;;;;;;9.57;4.97;;;13.20;99.90;;;;;;4978379;28;20065;-86
2023/06/14 04:16:26;;;;;;;8.43;5.03;;;13.30;99.90;;;;;;4995193;28;20046;-86
2023/06/14 04:18:54;;;;;;;7.95;4.90;;;13.60;99.90;;;;;;4998277;28;20054;-87
2023/06/14 04:21:23;;;;;;;6.50;5.13;;;14.10;99.90;;;;;;4966162;28;20069;-88
2023/06/14 04:23:52;;;;;;;;;;;14.70;99.90;;;;;;4995232;28;20054;-85
2023/06/14 04:26:23;;;;;;;10.90;4.65;;;15.10;99.90;;;;;;4993138;28;19917;-86
2023/06/14 04:28:50;;;;;;;7.40;4.75;;;15.30;99.90;;;;;;4981998;28;20039;-85
2023/06/14 04:31:18;;;;;;;7.78;4.45;;;15.40;99.90;;;;;;4972321;28;20057;-85
2023/06/14 04:33:46;;;;;;;7.45;4.22;;;15.40;99.90;;;;;;4965696;28;20404;-85
2023/06/14 04:36:17;;;;;;;8.13;4.05;;;15.50;99.90;;;;;;4986878;28;20041;-84
2023/06/14 04:38:46;;;;;;;7.72;4.18;;;15.80;99.90;;;;;;5009305;28;20046;-84
2023/06/14 04:41:13;;;;;;;6.68;4.20;;;15.90;99.90;;;;;;5011501;28;20058;-84
2023/06/14 04:43:42;;;;;;;20.73;5.32;;;16.20;99.90;;;;;;5002144;28;20042;-84
2023/06/14 04:46:10;;;;;;;7.70;4.15;;;16.20;99.90;;;;;;4999427;28;20058;-82
2023/06/14 04:48:40;;;;;;;13.00;4.05;;;16.30;99.90;;;;;;5003720;28;20502;-83
2023/06/14 04:51:09;;;;;;;10.38;4.30;;;16.30;99.90;;;;;;4984669;28;20051;-84
2023/06/14 04:53:36;;;;;;;11.10;3.88;;;16.40;99.90;;;;;;4989987;28;20494;-85
2023/06/14 04:56:03;;;;;;;10.30;4.18;;;16.60;99.90;;;;;;4985531;28;20636;-82
2023/06/14 04:58:31;;;;;;;9.00;4.80;;;16.90;99.90;;;;;;4994183;28;20042;-82
2023/06/14 05:00:59;;;;;;;11.55;4.38;;;17.30;99.90;;;;;;5006321;28;20399;-82
2023/06/14 05:03:26;;;;;;;6.97;3.63;;;17.30;99.90;;;;;;5005940;28;20065;-82
2023/06/14 05:05:53;;;;;;;7.55;3.80;;;17.30;99.90;;;;;;4996801;28;20046;-82
2023/06/14 05:08:23;;;;;;;8.20;3.50;;;17.70;99.90;;;;;;4989289;28;20053;-78
2023/06/14 05:10:50;;;;;;;6.72;4.03;;;17.90;99.90;;;;;;5006878;28;20060;-81
2023/06/14 05:13:17;;;;;;;8.77;3.72;;;18.50;99.90;;;;;;5005111;28;20047;-82
2023/06/14 05:15:45;;;;;;;5.32;3.30;;;18.90;99.90;;;;;;4972433;28;20067;-82
2023/06/14 05:18:13;;;;;;;9.98;3.83;;;18.70;99.90;;;;;;4989073;28;20060;-82
2023/06/14 05:20:39;;;;;;;6.20;3.88;;;18.90;99.90;;;;;;5006971;28;20049;-82
2023/06/14 05:23:06;;;;;;;6.93;3.67;;;19.00;99.90;;;;;;4991556;28;20518;-83
2023/06/14 05:25:32;;;;;;;9.43;5.45;;;19.40;99.90;;;;;;4974865;28;20042;-81
2023/06/14 05:27:58;;;;;;;7.03;3.50;;;19.50;99.90;;;;;;5000426;28;20061;-82
2023/06/14 05:30:24;;;;;;;9.73;3.90;;;19.20;99.90;;;;;;5005662;28;20042;-83
2023/06/14 05:32:50;;;;;;;7.85;3.83;;;19.10;99.90;;;;;;5000938;28;20053;-81
2023/06/14 05:35:16;;;;;;;8.70;3.72;;;19.40;99.90;;;;;;5006810;28;20387;-85
2023/06/14 05:37:43;;;;;;;9.93;3.95;;;19.50;99.90;;;;;;4978424;28;20472;-82
2023/06/14 05:40:09;;;;;;;7.53;3.55;;;20.20;99.90;;;;;;4989467;28;20048;-84
2023/06/14 05:42:35;;;;;;;6.30;3.28;;;20.40;99.90;;;;;;4994181;28;20053;-83
2023/06/14 05:45:03;;;;;;;9.57;3.92;;;21.20;99.90;;;;;;4988294;28;20050;-81
2023/06/14 05:47:30;;;;;;;5.10;3.60;;;20.80;99.90;;;;;;4988604;28;20039;-83
2023/06/14 05:49:56;;;;;;;6.55;3.15;;;20.90;99.90;;;;;;4976758;28;20051;-86
2023/06/14 05:52:22;;;;;;;6.50;3.40;;;21.20;99.90;;;;;;4993761;28;20079;-82
2023/06/14 05:54:49;;;;;;;8.15;3.45;;;21.10;99.90;;;;;;5007446;28;20031;-81
2023/06/14 05:57:15;;;;;;;9.85;3.47;;;21.00;99.90;;;;;;4991204;28;20057;-81
2023/06/14 05:59:41;;;;;;;5.25;3.17;;;21.20;99.90;;;;;;4984807;28;20037;-86
2023/06/14 06:02:07;;;;;;;5.18;3.25;;;21.80;99.90;;;;;;4989111;28;20038;-79
2023/06/14 06:04:33;;;;;;;7.35;3.03;;;21.50;99.90;;;;;;4982603;28;20031;-83
2023/06/14 06:07:00;;;;;;;5.78;3.00;;;21.90;99.90;;;;;;4996394;28;20045;-84
2023/06/14 06:09:26;;;;;;;6.28;3.33;;;23.00;99.90;;;;;;5002238;28;20047;-82
2023/06/14 06:11:52;;;;;;;5.05;2.72;;;22.70;99.90;;;;;;4986364;28;20042;-78
2023/06/14 06:14:19;;;;;;;6.18;3.78;;;22.40;99.90;;;;;;4990282;28;20038;-80
2023/06/14 06:16:45;;;;;;;6.05;3.05;;;21.70;99.90;;;;;;4989278;28;20060;-83
2023/06/14 06:19:11;;;;;;;5.78;2.80;;;22.80;99.90;;;;;;4990504;28;20038;-83
2023/06/14 06:21:37;;;;;;;4.88;3.28;;;23.70;94.80;;;;;;4989857;28;20038;-89
2023/06/14 06:24:05;;;;;;;6.45;3.00;;;24.40;85.10;;;;;;4995352;28;20277;-86
2023/06/14 06:26:32;;;;;;;4.30;2.67;;;24.70;81.20;;;;;;4997090;28;20499;-85
2023/06/14 06:28:59;;;;;;;6.90;2.60;;;24.30;77.10;;;;;;4990684;28;20053;-82
2023/06/14 06:31:27;;;;;;;7.22;2.83;;;24.30;75.30;;;;;;4985758;28;20144;-80
2023/06/14 06:33:56;;;;;;;3.97;2.97;;;23.40;87.70;;;;;;4996161;28;20030;-85
2023/06/14 06:36:22;;;;;;;5.47;2.83;;;23.70;84.70;;;;;;4994937;28;20022;-84
2023/06/14 06:38:49;;;;;;;4.82;3.05;;;24.00;83.90;;;;;;4980356;28;20049;-83
2023/06/14 06:41:15;;;;;;;4.28;2.75;;;24.40;73.50;;;;;;5006792;28;20092;-86
2023/06/14 06:43:41;;;;;;;4.22;3.17;;;24.30;77.40;;;;;;4993782;28;20057;-78
2023/06/14 06:46:09;;;;;;;3.97;3.05;;;25.20;62.70;;;;;;4982111;28;20042;-82
2023/06/14 06:48:35;;;;;;;8.02;3.05;;;24.90;55.10;;;;;;4991841;28;20033;-82
2023/06/14 06:51:02;;;;;;;6.75;3.22;;;24.80;61.10;;;;;;4990630;28;20039;-83
2023/06/14 06:53:28;;;;;;;5.18;2.80;;;24.50;62.30;;;;;;4987772;28;20034;-82
2023/06/14 06:55:55;;;;;;;5.20;2.70;;;24.90;62.10;;;;;;4992354;28;20057;-81
2023/06/14 06:58:22;;;;;;;4.57;2.70;;;23.90;73.30;;;;;;4998328;28;20042;-84
2023/06/14 07:00:48;;;;;;;7.28;3.05;;;24.30;73.60;;;;;;4995723;28;20046;-86
2023/06/14 07:03:14;;;;;;;5.22;2.63;;;24.50;65.20;;;;;;4988780;28;20034;-80
2023/06/14 07:05:40;;;;;;;3.70;2.40;;;24.50;73.80;;;;;;4991008;28;20038;-85
2023/06/14 07:08:06;;;;;;;4.03;3.03;;;24.70;62.60;;;;;;4991754;28;20046;-85
2023/06/14 07:10:33;;;;;;;5.22;2.85;;;24.70;60.50;;;;;;4993291;28;20041;-82
2023/06/14 07:12:59;;;;;;;5.47;2.85;;;24.60;62.40;;;;;;4986270;28;20034;-83
2023/06/14 07:15:25;;;;;;;6.20;2.80;;;25.40;56.40;;;;;;5005197;28;20050;-80
2023/06/14 07:17:52;;;;;;;7.03;2.80;;;24.70;57.50;;;;;;4980945;28;20041;-84
2023/06/14 07:20:22;;;;;;;10.85;2.60;;;24.80;57.10;;;;;;4992885;28;20043;-84
2023/06/14 07:22:48;;;;;;;4.55;2.30;;;24.90;60.70;;;;;;5002180;28;20372;-84
2023/06/14 07:25:15;;;;;;;4.85;3.17;;;25.60;59.10;;;;;;4993822;28;20045;-81
2023/06/14 07:27:42;;;;;;;5.35;2.70;;;25.40;61.70;;;;;;5002864;28;20030;-88
2023/06/14 07:30:09;;;;;;;3.28;2.25;;;25.30;54.60;;;;;;4993982;28;20467;-83
2023/06/14 07:32:36;;;;;;;5.47;2.97;;;25.30;55.10;;;;;;4986417;28;20038;-85
2023/06/14 07:35:03;;;;;;;6.50;2.85;;;24.50;79.20;;;;;;5011984;28;20483;-80
2023/06/14 07:37:29;;;;;;;6.75;3.13;;;25.10;67.20;;;;;;4994120;28;20053;-85
2023/06/14 07:39:55;;;;;;;6.00;2.97;;;24.60;73.80;;;;;;4978101;28;20047;-87
2023/06/14 07:42:21;;;;;;;7.03;2.55;;;25.50;67.60;;;;;;4978482;28;20050;-88
2023/06/14 07:44:48;;;;;;;5.15;2.92;;;26.00;44.70;;;;;;4995312;28;20038;-87
2023/06/14 07:47:14;;;;;;;5.13;2.70;;;25.00;49.20;;;;;;4995359;28;20038;-86
2023/06/14 07:49:40;;;;;;;7.57;2.40;;;25.20;54.60;;;;;;4993189;28;20046;-90
2023/06/14 07:52:07;;;;;;;3.00;2.38;;;24.70;55.20;;;;;;4996362;28;20041;-85
2023/06/14 07:54:33;;;;;;;4.95;3.00;;;24.30;67.20;;;;;;5010289;28;20076;-89
2023/06/14 07:57:00;;;;;;;8.27;3.38;;;24.10;73.60;;;;;;4995803;28;20034;-86
2023/06/14 07:59:26;;;;;;;5.10;2.58;;;23.90;80.70;;;;;;5003930;28;20038;-89
2023/06/14 08:01:53;;;;;;;4.72;2.78;;;23.40;79.90;;;;;;4988873;28;20490;-85
2023/06/14 08:04:19;;;;;;;5.15;2.50;;;23.70;85.40;;;;;;4987042;28;20033;-91
2023/06/14 08:06:45;;;;;;;4.53;2.53;;;24.20;80.80;;;;;;4987836;28;20034;-88
2023/06/14 08:09:13;;;;;;;4.90;2.80;;;24.70;53.20;;;;;;4998188;28;20037;-83
2023/06/14 08:11:39;;;;;;;5.53;3.20;;;24.60;54.90;;;;;;4990156;28;20045;-89
2023/06/14 08:14:05;;;;;;;5.78;2.42;;;24.70;60.40;;;;;;5009650;28;20149;-89
2023/06/14 08:16:31;;;;;;;6.30;2.92;;;25.20;54.80;;;;;;4999909;28;20030;-87
2023/06/14 08:18:57;;;;;;;5.68;2.50;;;25.20;53.30;;;;;;4996838;28;20452;-83
2023/06/14 08:21:23;;;;;;;4.55;2.85;;;24.80;60.10;;;;;;5008008;28;20488;-92
2023/06/14 08:23:52;;;;;;;8.60;3.08;;;24.10;84.80;;;;;;5000595;28;20035;-93
2023/06/14 08:26:19;;;;;;;6.38;2.58;;;25.30;68.90;;;;;;5007122;28;20443;-88
2023/06/14 08:28:46;;;;;;;4.57;2.80;;;25.60;53.20;;;;;;4995359;28;20049;-89
2023/06/14 08:31:12;;;;;;;4.90;2.70;;;25.50;54.40;;;;;;4978174;28;20065;-86
2023/06/14 08:33:42;;;;;;;4.40;2.55;;;25.40;57.80;;;;;;5005433;28;20038;-88
2023/06/14 08:36:10;;;;;;;4.30;2.67;;;25.80;56.70;;;;;;5017138;28;20053;-87
2023/06/14 08:38:37;;;;;;;4.72;3.10;;;24.90;53.40;;;;;;4985644;28;20054;-88
2023/06/14 08:41:08;;;;;;;5.20;2.70;;;25.00;57.10;;;;;;4996310;28;20076;-87
2023/06/14 08:43:34;;;;;;;4.45;2.90;;;24.70;60.80;;;;;;4995419;28;20046;-87
2023/06/14 08:46:03;;;;;;;3.17;1.98;;;24.80;74.10;;;;;;4992322;28;20041;-82
2023/06/14 08:48:33;;;;;;;6.47;2.67;;;25.20;39.20;;;;;;4980030;28;20065;-87
2023/06/14 08:51:03;;;;;;;3.50;2.22;;;25.60;41.00;;;;;;4995899;28;20134;-87
2023/06/14 08:53:33;;;;;;;3.53;2.50;;;25.00;39.50;;;;;;4992366;28;20038;-88
2023/06/14 08:56:01;;;;;;;;;;;25.30;38.90;;;;;;5008498;28;20038;-88
2023/06/14 08:58:31;;;;;;;;;;;25.50;46.10;;;;;;5007679;28;19910;-83
2023/06/14 09:00:58;;;;;;;;;;;26.10;34.80;;;;;;4992151;28;19913;-83
2023/06/14 09:03:29;;;;;;;;;;;26.10;23.40;;;;;;5008991;28;19914;-81
2023/06/14 09:05:58;;;;;;;;;;;25.10;18.90;;;;;;5010931;28;19917;-86
2023/06/14 09:08:25;;;;;;;;;;;24.70;31.10;;;;;;5015816;28;19928;-87
2023/06/14 09:10:51;;;;;;;;;;;26.00;25.20;;;;;;5013150;28;19909;-86
2023/06/14 09:13:17;;;;;;;;;;;25.50;16.70;;;;;;5021523;28;20362;-82
2023/06/14 09:15:43;;;;;;;;;;;24.50;21.40;;;;;;4998080;28;19906;-85
2023/06/14 09:18:09;;;;;;;;;;;24.90;30.40;;;;;;4995431;28;20004;-86
2023/06/14 09:20:35;;;;;;;;;;;25.80;29.50;;;;;;5011321;28;20438;-89
2023/06/14 09:23:02;;;;;;;;;;;25.60;30.80;;;;;;4993622;28;19914;-88
2023/06/14 09:25:28;;;;;;;;;;;26.00;18.00;;;;;;4997236;28;19910;-88
2023/06/14 09:27:54;;;;;;;;;;;25.80;19.10;;;;;;4993643;28;19960;-85
2023/06/14 09:30:20;;;;;;;;;;;25.30;30.50;;;;;;4998251;28;20363;-90
2023/06/14 09:32:46;;;;;;;;;;;25.30;27.60;;;;;;4999096;28;19909;-92
2023/06/14 09:35:12;;;;;;;;;;;25.30;23.10;;;;;;5015020;28;19913;-88
2023/06/14 09:37:38;;;;;;;;;;;25.40;22.00;;;;;;4991853;28;20344;-88
2023/06/14 09:40:05;;;;;;;;;;;25.80;25.20;;;;;;4991113;28;20302;-85
2023/06/14 09:42:31;;;;;;;;;;;26.70;17.00;;;;;;4992900;28;19914;-84
2023/06/14 09:44:57;;;;;;;;;;;26.10;18.00;;;;;;5010279;28;19913;-89
2023/06/14 09:47:24;;;;;;;;;;;25.30;25.50;;;;;;5010839;28;19960;-88
2023/06/14 09:49:50;;;;;;;;;;;24.60;28.70;;;;;;4993670;28;19909;-87
2023/06/14 09:52:17;;;;;;;;;;;24.90;33.70;;;;;;5004605;28;19909;-85
2023/06/14 09:54:46;;;;;;;;;;;25.70;26.00;;;;;;4993759;28;19917;-86
2023/06/14 09:57:12;;;;;;;;;;;26.50;23.90;;;;;;4984577;28;19910;-90
2023/06/14 09:59:42;;;;;;;;;;;27.00;19.10;;;;;;5007878;28;19917;-84
2023/06/14 10:02:18;;;;;;;;;;;27.00;16.50;;;;;;4992295;28;20581;-88
2023/06/14 10:04:46;;;;;;;;;;;26.10;17.40;;;;;;4992325;28;19914;-89
2023/06/14 10:07:16;;;;;;;;;;;25.70;23.20;;;;;;4995829;28;19917;-86
2023/06/14 10:09:45;;;;;;;;;;;25.70;18.20;;;;;;5008971;28;19916;-88
2023/06/14 10:12:15;;;;;;;;;;;25.70;23.10;;;;;;4975244;28;19909;-87
2023/06/14 10:14:41;;;;;;;;;;;24.90;18.80;;;;;;5001919;28;19910;-89
2023/06/14 10:17:09;;;;;;;;;;;24.90;23.40;;;;;;5023566;28;19959;-89
2023/06/14 10:19:44;;;;;;;;;;;25.80;26.80;;;;;;5011997;28;20282;-89
2023/06/14 10:22:24;;;;;;;;;;;26.00;21.60;;;;;;4999155;28;19913;-85
2023/06/14 10:24:51;;;;;;;;;;;25.20;23.50;;;;;;5004097;28;19924;-86
2023/06/14 10:27:23;;;;;;;;;;;24.60;29.20;;;;;;4993859;28;19910;-88
2023/06/14 10:29:58;;;;;;;;;;;24.40;31.60;;;;;;4987503;28;19917;-87
2023/06/14 10:32:25;;;;;;;;;;;24.80;30.30;;;;;;4992561;28;20240;-88
2023/06/14 10:35:14;;;;;;;;;;;24.80;28.30;;;;;;4989474;28;19910;-84
2023/06/14 10:37:40;;;;;;;;;;;24.10;36.50;;;;;;4994651;28;19921;-88
2023/06/14 10:40:08;;;;;;;;;;;24.50;34.80;;;;;;5006460;28;20389;-86
2023/06/14 10:42:34;;;;;;;;;;;24.50;32.70;;;;;;5004761;28;19914;-84
2023/06/14 10:45:00;;;;;;;;;;;24.40;33.30;;;;;;4988858;28;19914;-89
2023/06/14 10:47:26;;;;;;;;;;;24.00;41.60;;;;;;5012728;28;19917;-93
2023/06/14 10:49:53;;;;;;;;;;;24.40;36.40;;;;;;4998254;28;19917;-85
2023/06/14 10:52:29;;;;;;;;;;;24.70;28.70;;;;;;5006986;28;19910;-91
2023/06/14 10:55:16;;;;;;;;;;;24.50;27.90;;;;;;5006555;28;20351;-90
2023/06/14 10:57:43;;;;;;;;;;;24.50;25.20;;;;;;5004364;28;19910;-90
2023/06/14 11:00:15;;;;;;;;;;;24.20;22.10;;;;;;4989930;28;19906;-87
2023/06/14 11:03:15;;;;;;;;;;;24.60;22.30;;;;;;5001522;28;19920;-88
2023/06/14 11:05:41;;;;;;;;;;;25.00;19.90;;;;;;5008950;28;19917;-86
2023/06/14 11:08:07;;;;;;;;;;;25.20;24.20;;;;;;4993347;28;19972;-90
2023/06/14 11:10:33;;;;;;;;;;;25.20;28.10;;;;;;4996918;28;19932;-91
2023/06/14 11:12:59;;;;;;;;;;;25.10;26.90;;;;;;4989200;28;19910;-87
2023/06/14 11:15:31;;;;;;;;;;;24.40;29.40;;;;;;5011173;28;19906;-83
2023/06/14 11:17:57;;;;;;;;;;;23.90;43.20;;;;;;4997636;28;19913;-91
2023/06/14 11:20:27;;;;;;;;;;;23.60;46.70;;;;;;4995603;28;19910;-85
2023/06/14 11:22:53;;;;;;;;;;;23.40;46.90;;;;;;4981300;28;19924;-91
2023/06/14 11:25:20;;;;;;;;;;;23.50;45.20;;;;;;4998110;28;19917;-93
2023/06/14 11:27:46;;;;;;;;;;;23.60;34.60;;;;;;4994526;28;19914;-88
2023/06/14 11:30:13;;;;;;;;;;;24.00;48.50;;;;;;4994239;28;19914;-91
2023/06/14 11:32:39;;;;;;;;;;;24.60;42.40;;;;;;5008724;28;19962;-87
2023/06/14 11:35:05;;;;;;;;;;;24.60;39.70;;;;;;5008342;28;19910;-90
2023/06/14 11:37:34;;;;;;;;;;;24.70;36.90;;;;;;4994444;28;19922;-92
2023/06/14 11:40:01;;;;;;;;;;;24.70;38.90;;;;;;4998774;28;19910;-87
2023/06/14 11:42:28;;;;;;;;;;;24.70;33.30;;;;;;4996751;28;19917;-87
2023/06/14 11:44:54;;;;;;;;;;;24.10;36.30;;;;;;4984266;28;19914;-90
2023/06/14 11:47:20;;;;;;;;;;;24.20;38.70;;;;;;5007446;28;19909;-91
2023/06/14 11:49:47;;;;;;;;;;;25.00;33.30;;;;;;4993542;28;19909;-90
2023/06/14 11:52:14;;;;;;;;;;;25.10;22.20;;;;;;4987460;28;20249;-85
2023/06/14 11:54:41;;;;;;;;;;;25.00;31.40;;;;;;4994165;28;20008;-84
2023/06/14 11:57:07;;;;;;;;;;;24.80;30.80;;;;;;4996996;28;20298;-88
2023/06/14 11:59:38;;;;;;;;;;;24.80;32.80;;;;;;4987078;28;20347;-85
2023/06/14 12:02:04;;;;;;;;;;;24.70;28.90;;;;;;5009197;28;20394;-86
2023/06/14 12:04:30;;;;;;;;;;;24.40;29.90;;;;;;4979864;28;19921;-87
2023/06/14 12:06:57;;;;;;;;;;;24.00;38.40;;;;;;5010063;28;20008;-85
2023/06/14 12:09:25;;;;;;;;;;;23.80;40.50;;;;;;5005337;28;19920;-84
2023/06/14 12:12:03;;;;;;;;;;;23.80;45.70;;;;;;5007956;28;19996;-92
2023/06/14 12:14:32;;;;;;;;;;;23.90;46.90;;;;;;4996094;28;19910;-87
2023/06/14 12:17:08;;;;;;;;;;;23.80;43.90;;;;;;4994069;28;19917;-86
2023/06/14 12:19:41;;;;;;;;;;;24.00;42.00;;;;;;4992779;28;20362;-84
2023/06/14 12:22:08;;;;;;;;;;;24.70;38.50;;;;;;4998528;28;20235;-88
2023/06/14 12:24:34;;;;;;;;;;;24.50;36.40;;;;;;5008481;28;19914;-84
2023/06/14 12:27:03;;;;;;;;;;;24.20;36.90;;;;;;5010273;28;19910;-88
2023/06/14 12:29:30;;;;;;;;;;;24.00;45.50;;;;;;4991337;28;19909;-89
2023/06/14 12:31:56;;;;;;;;;;;23.90;44.60;;;;;;4992598;28;19918;-85
2023/06/14 12:34:23;;;;;;;;;;;24.00;49.10;;;;;;4986710;28;19909;-88
2023/06/14 12:36:55;;;;;;;;;;;23.70;49.50;;;;;;4993681;28;20270;-86
2023/06/14 12:39:22;;;;;;;;;;;23.70;53.90;;;;;;4989456;28;20295;-83
2023/06/14 12:41:48;;;;;;;;;;;23.70;47.80;;;;;;5011337;28;19913;-88
2023/06/14 12:44:15;;;;;;;;;;;23.70;51.40;;;;;;5015453;28;20371;-86
2023/06/14 12:46:44;;;;;;;;;;;23.80;49.90;;;;;;5001958;28;19910;-86
2023/06/14 12:49:10;;;;;;;;;;;24.10;44.00;;;;;;4993720;28;19929;-89
2023/06/14 12:51:37;;;;;;;;;;;24.70;29.60;;;;;;4999311;28;20188;-89
2023/06/14 12:54:03;;;;;;;;;;;24.90;26.90;;;;;;4992390;28;19910;-88
2023/06/14 12:56:29;;;;;;;;;;;24.80;29.50;;;;;;4992724;28;19912;-81
2023/06/14 12:58:55;;;;;;;;;;;24.70;32.60;;;;;;4990519;28;19909;-82
2023/06/14 13:01:21;;;;;;;;;;;25.00;34.70;;;;;;5007373;28;19924;-84
2023/06/14 13:03:47;;;;;;;;;;;25.00;31.10;;;;;;4995071;28;20366;-85
2023/06/14 13:06:13;;;;;;;;;;;24.20;29.30;;;;;;5010771;28;19910;-85
2023/06/14 13:08:39;;;;;;;;;;;24.10;34.10;;;;;;4995267;28;20290;-89
2023/06/14 13:11:05;;;;;;;;;;;24.00;35.30;;;;;;5011911;28;19906;-90
2023/06/14 13:13:31;;;;;;;;;;;24.30;31.30;;;;;;4997000;28;20004;-90
2023/06/14 13:15:57;;;;;;;;;;;24.80;27.60;;;;;;5002602;28;20310;-84
2023/06/14 13:18:23;;;;;;;;;;;24.90;27.00;;;;;;5010498;28;19909;-88